Portageville, NY (14536)

9:58 AM EDT on August 05, 2015 (GMT -0400)
Southview Farms | | Change Station
CLOSE
Current Station
Personal Weather Station
Location: Castile, NY
Elevation: 1417 ft
Nearby Weather Stations

Elev 1417 ft 42.64 °N, 78.01 °W | Updated 3 minutes ago

Partly Cloudy
Partly Cloudy
63.5 °F
Feels Like 63.5 °F
N
0.0
Wind Variable Wind from North

Today
High -- | Low -- °F
--% Chance of Precip.
Yesterday
High -- | Low -- °F
Precip. -- in
6:08 AM 8:27 PM
Waning Gibbous, 67% visible
Pressure 30.02 in
Visibility 10.0 miles
Clouds Few 5500 ft
Dew Point 57 °F
Humidity 80%
Rainfall 0.04 in
Snow Depth Not available.
UV 5 out of 12
Pollen 7.90 out of 12
Air Quality Not available.
Flu Activity Not available.
METAR KDSV 051354Z AUTO 31008KT 10SM FEW055 20/12 A3000 RMK AO2 SLP165 T02000122

More Conditions Fewer Conditions

Pressure 30.02 in
Visibility 10.0 miles
Clouds Few 5500 ft
Dew Point 57 °F
Humidity 80%
Rainfall 0.04 in
Snow Depth Not available.
UV 5 out of 12
Pollen 7.90 out of 12
Air Quality Not available.
Flu Activity Not available.
METAR KDSV 051354Z AUTO 31008KT 10SM FEW055 20/12 A3000 RMK AO2 SLP165 T02000122

More Conditions Fewer Conditions

10-Day Weather Forecast

×

Almanac

Astronomy

Aug. 05, 2015 Rise Set
Actual Time
Civil Twilight
Nautical Twilight
Astronomical Twilight
Moon
Length of Visible Light
Length of Day
Tomorrow will be .
, % of the Moon is Illuminated

Today's Extremes

State Highs State Lows

Community

WunderPhotos

Upload Photos

1,844,185 photos uploaded!

WunderBlogs® & News

Nearby

Air Quality

  Air Quality AQ Index Pollutant
Not available.

Snow Depth

Station Depth Elevation

Earthquake Activity

City Distance Mag. Time & Date
Minimum magnitude displayed is 2.5.

Coastal Water Temperatures

Place Temperature

Stations

Nearby Weather Stations

Station Location Temp. Windchill Dew Point Humidity Wind Precip. Elev Updated Type